SSR weather

Sara Airport
Pentecost Island, Penama, Vanuatu

Public forecast

Using degrees Celsius for public forecast. Weather courtesy of forecast.io.

Closest aviation weather report (METAR) to Sara Airport

Closest report is Longana Airport, 14.6 nm (27.0 km) NW. Retrieved 2019/12/13 03:00 UTC (2 hours ago):

NVSG 130300Z AUTO 15005KT //// // NCD 29/23 Q1009

Closest aviation forecast (TAF) to Sara Airport

Closest forecast is Longana Airport, 14.6 nm (27.0 km) NW. Retrieved 2019-12-13 00:17 UTC (5 hours ago):

TAF NVSG 122220Z 1300/1324 VRB04KT 9999 SCT020